sensor_id;sensor_type;location;lat;lon;timestamp;P1;durP1;ratioP1;P2;durP2;ratioP2
52854;SDS011;38719;51.418;7.286;2022-10-15T00:02:10;10.45;;;7.15;;
52854;SDS011;38719;51.418;7.286;2022-10-15T00:04:38;12.82;;;8.27;;
52854;SDS011;38719;51.418;7.286;2022-10-15T00:07:05;10.52;;;7.88;;
52854;SDS011;38719;51.418;7.286;2022-10-15T00:09:33;11.13;;;7.75;;
52854;SDS011;38719;51.418;7.286;2022-10-15T00:12:01;10.13;;;7.22;;
52854;SDS011;38719;51.418;7.286;2022-10-15T00:14:29;12.93;;;7.68;;
52854;SDS011;38719;51.418;7.286;2022-10-15T00:16:58;11.70;;;7.80;;
52854;SDS011;38719;51.418;7.286;2022-10-15T00:19:25;11.93;;;7.60;;
52854;SDS011;38719;51.418;7.286;2022-10-15T00:21:53;10.32;;;7.45;;
52854;SDS011;38719;51.418;7.286;2022-10-15T00:24:20;12.52;;;7.88;;
52854;SDS011;38719;51.418;7.286;2022-10-15T00:26:48;13.85;;;7.88;;
52854;SDS011;38719;51.418;7.286;2022-10-15T00:29:16;12.02;;;8.52;;
52854;SDS011;38719;51.418;7.286;2022-10-15T00:31:43;12.40;;;8.20;;
52854;SDS011;38719;51.418;7.286;2022-10-15T00:34:12;10.55;;;7.78;;
52854;SDS011;38719;51.418;7.286;2022-10-15T00:36:40;13.35;;;9.60;;
52854;SDS011;38719;51.418;7.286;2022-10-15T00:39:08;12.40;;;8.88;;
52854;SDS011;38719;51.418;7.286;2022-10-15T00:41:38;12.63;;;9.05;;
52854;SDS011;38719;51.418;7.286;2022-10-15T00:47:19;13.73;;;10.00;;
52854;SDS011;38719;51.418;7.286;2022-10-15T00:49:54;16.05;;;9.82;;
52854;SDS011;38719;51.418;7.286;2022-10-15T00:52:27;18.73;;;10.48;;
52854;SDS011;38719;51.418;7.286;2022-10-15T00:55:00;13.00;;;9.68;;
52854;SDS011;38719;51.418;7.286;2022-10-15T00:57:31;14.65;;;9.35;;
52854;SDS011;38719;51.418;7.286;2022-10-15T01:00:01;12.63;;;8.85;;
52854;SDS011;38719;51.418;7.286;2022-10-15T01:02:32;12.77;;;9.45;;
52854;SDS011;38719;51.418;7.286;2022-10-15T01:05:01;14.75;;;9.90;;
52854;SDS011;38719;51.418;7.286;2022-10-15T01:07:29;16.17;;;10.63;;
52854;SDS011;38719;51.418;7.286;2022-10-15T01:09:56;17.30;;;9.95;;
52854;SDS011;38719;51.418;7.286;2022-10-15T01:12:26;14.68;;;8.88;;
52854;SDS011;38719;51.418;7.286;2022-10-15T01:15:03;11.90;;;9.05;;
52854;SDS011;38719;51.418;7.286;2022-10-15T01:17:43;15.15;;;10.13;;
52854;SDS011;38719;51.418;7.286;2022-10-15T01:20:31;14.25;;;9.20;;
52854;SDS011;38719;51.418;7.286;2022-10-15T01:29:35;12.85;;;9.40;;
52854;SDS011;38719;51.418;7.286;2022-10-15T01:32:26;20.40;;;10.07;;
52854;SDS011;38719;51.418;7.286;2022-10-15T01:34:58;13.32;;;9.50;;
52854;SDS011;38719;51.418;7.286;2022-10-15T01:37:34;12.80;;;8.95;;
52854;SDS011;38719;51.418;7.286;2022-10-15T01:40:06;15.30;;;9.45;;
52854;SDS011;38719;51.418;7.286;2022-10-15T01:42:38;13.93;;;9.38;;
52854;SDS011;38719;51.418;7.286;2022-10-15T01:45:11;13.93;;;9.25;;
52854;SDS011;38719;51.418;7.286;2022-10-15T01:47:47;15.10;;;9.90;;
52854;SDS011;38719;51.418;7.286;2022-10-15T01:50:18;15.05;;;10.00;;
52854;SDS011;38719;51.418;7.286;2022-10-15T01:52:49;13.57;;;8.32;;
52854;SDS011;38719;51.418;7.286;2022-10-15T01:55:18;13.38;;;9.23;;
52854;SDS011;38719;51.418;7.286;2022-10-15T01:57:47;14.88;;;9.20;;
52854;SDS011;38719;51.418;7.286;2022-10-15T02:00:15;15.27;;;9.20;;
52854;SDS011;38719;51.418;7.286;2022-10-15T02:02:43;15.25;;;9.70;;
52854;SDS011;38719;51.418;7.286;2022-10-15T02:05:14;12.68;;;8.98;;
52854;SDS011;38719;51.418;7.286;2022-10-15T02:07:46;14.18;;;9.15;;
52854;SDS011;38719;51.418;7.286;2022-10-15T02:10:20;14.23;;;9.00;;
52854;SDS011;38719;51.418;7.286;2022-10-15T02:13:04;13.87;;;9.13;;
52854;SDS011;38719;51.418;7.286;2022-10-15T02:15:43;11.75;;;8.65;;
52854;SDS011;38719;51.418;7.286;2022-10-15T02:18:18;14.38;;;9.60;;
52854;SDS011;38719;51.418;7.286;2022-10-15T02:20:55;17.42;;;10.13;;
52854;SDS011;38719;51.418;7.286;2022-10-15T02:23:25;14.38;;;9.57;;
52854;SDS011;38719;51.418;7.286;2022-10-15T02:25:57;13.32;;;9.80;;
52854;SDS011;38719;51.418;7.286;2022-10-15T02:28:26;16.05;;;10.13;;
52854;SDS011;38719;51.418;7.286;2022-10-15T02:30:55;13.68;;;9.55;;
52854;SDS011;38719;51.418;7.286;2022-10-15T02:33:24;17.98;;;9.93;;
52854;SDS011;38719;51.418;7.286;2022-10-15T02:35:55;13.75;;;10.00;;
52854;SDS011;38719;51.418;7.286;2022-10-15T02:38:25;16.60;;;10.40;;
52854;SDS011;38719;51.418;7.286;2022-10-15T02:40:56;15.05;;;10.52;;
52854;SDS011;38719;51.418;7.286;2022-10-15T02:43:24;17.95;;;11.55;;
52854;SDS011;38719;51.418;7.286;2022-10-15T02:45:52;15.57;;;10.88;;
52854;SDS011;38719;51.418;7.286;2022-10-15T02:48:20;15.80;;;10.70;;
52854;SDS011;38719;51.418;7.286;2022-10-15T02:50:47;17.48;;;11.48;;
52854;SDS011;38719;51.418;7.286;2022-10-15T02:53:16;17.55;;;10.68;;
52854;SDS011;38719;51.418;7.286;2022-10-15T02:55:43;18.20;;;10.82;;
52854;SDS011;38719;51.418;7.286;2022-10-15T02:58:12;15.30;;;10.95;;
52854;SDS011;38719;51.418;7.286;2022-10-15T03:00:39;16.88;;;10.95;;
52854;SDS011;38719;51.418;7.286;2022-10-15T03:03:07;20.00;;;11.65;;
52854;SDS011;38719;51.418;7.286;2022-10-15T03:05:34;17.95;;;11.07;;
52854;SDS011;38719;51.418;7.286;2022-10-15T03:08:02;18.40;;;12.18;;
52854;SDS011;38719;51.418;7.286;2022-10-15T03:10:31;19.73;;;11.93;;
52854;SDS011;38719;51.418;7.286;2022-10-15T03:13:00;18.67;;;12.63;;
52854;SDS011;38719;51.418;7.286;2022-10-15T03:15:31;20.20;;;12.80;;
52854;SDS011;38719;51.418;7.286;2022-10-15T03:17:58;20.42;;;13.23;;
52854;SDS011;38719;51.418;7.286;2022-10-15T03:20:26;17.80;;;12.75;;
52854;SDS011;38719;51.418;7.286;2022-10-15T03:22:54;21.52;;;13.02;;
52854;SDS011;38719;51.418;7.286;2022-10-15T03:25:21;21.10;;;12.68;;
52854;SDS011;38719;51.418;7.286;2022-10-15T03:27:50;21.05;;;13.60;;
52854;SDS011;38719;51.418;7.286;2022-10-15T03:30:18;22.70;;;13.88;;
52854;SDS011;38719;51.418;7.286;2022-10-15T03:32:46;25.92;;;13.32;;
52854;SDS011;38719;51.418;7.286;2022-10-15T03:35:14;22.15;;;13.70;;
52854;SDS011;38719;51.418;7.286;2022-10-15T03:37:42;24.45;;;14.85;;
52854;SDS011;38719;51.418;7.286;2022-10-15T03:40:09;22.85;;;14.68;;
52854;SDS011;38719;51.418;7.286;2022-10-15T03:42:39;25.75;;;15.05;;
52854;SDS011;38719;51.418;7.286;2022-10-15T03:45:09;26.13;;;14.35;;
52854;SDS011;38719;51.418;7.286;2022-10-15T03:47:37;23.20;;;13.88;;
52854;SDS011;38719;51.418;7.286;2022-10-15T03:50:04;23.23;;;14.13;;
52854;SDS011;38719;51.418;7.286;2022-10-15T03:52:32;22.13;;;14.90;;
52854;SDS011;38719;51.418;7.286;2022-10-15T03:55:00;28.73;;;15.00;;
52854;SDS011;38719;51.418;7.286;2022-10-15T03:57:27;22.08;;;13.75;;
52854;SDS011;38719;51.418;7.286;2022-10-15T03:59:55;22.90;;;14.20;;
52854;SDS011;38719;51.418;7.286;2022-10-15T04:02:23;21.98;;;14.15;;
52854;SDS011;38719;51.418;7.286;2022-10-15T04:04:52;27.05;;;15.65;;
52854;SDS011;38719;51.418;7.286;2022-10-15T04:07:20;34.75;;;17.67;;
52854;SDS011;38719;51.418;7.286;2022-10-15T04:09:48;28.52;;;16.58;;
52854;SDS011;38719;51.418;7.286;2022-10-15T04:12:16;29.95;;;16.75;;
52854;SDS011;38719;51.418;7.286;2022-10-15T04:14:44;23.77;;;16.27;;
52854;SDS011;38719;51.418;7.286;2022-10-15T04:17:12;28.15;;;17.13;;
52854;SDS011;38719;51.418;7.286;2022-10-15T04:19:44;28.42;;;16.88;;
52854;SDS011;38719;51.418;7.286;2022-10-15T04:22:11;25.90;;;16.58;;
52854;SDS011;38719;51.418;7.286;2022-10-15T04:24:39;28.83;;;16.45;;
52854;SDS011;38719;51.418;7.286;2022-10-15T04:27:06;31.85;;;17.38;;
52854;SDS011;38719;51.418;7.286;2022-10-15T04:29:34;26.77;;;16.85;;
52854;SDS011;38719;51.418;7.286;2022-10-15T04:32:02;30.10;;;17.00;;
52854;SDS011;38719;51.418;7.286;2022-10-15T04:34:29;31.45;;;16.88;;
52854;SDS011;38719;51.418;7.286;2022-10-15T04:36:58;31.77;;;17.83;;
52854;SDS011;38719;51.418;7.286;2022-10-15T04:39:26;29.15;;;17.23;;
52854;SDS011;38719;51.418;7.286;2022-10-15T04:41:53;31.30;;;17.13;;
52854;SDS011;38719;51.418;7.286;2022-10-15T04:44:21;30.85;;;17.33;;
52854;SDS011;38719;51.418;7.286;2022-10-15T04:46:48;30.88;;;18.58;;
52854;SDS011;38719;51.418;7.286;2022-10-15T04:49:16;35.30;;;19.20;;
52854;SDS011;38719;51.418;7.286;2022-10-15T04:51:43;31.58;;;18.02;;
52854;SDS011;38719;51.418;7.286;2022-10-15T04:54:12;29.85;;;17.25;;
52854;SDS011;38719;51.418;7.286;2022-10-15T04:56:40;31.50;;;18.75;;
52854;SDS011;38719;51.418;7.286;2022-10-15T04:59:07;30.67;;;18.10;;
52854;SDS011;38719;51.418;7.286;2022-10-15T05:01:35;30.30;;;17.73;;
52854;SDS011;38719;51.418;7.286;2022-10-15T05:04:03;32.67;;;17.23;;
52854;SDS011;38719;51.418;7.286;2022-10-15T05:06:30;31.95;;;18.85;;
52854;SDS011;38719;51.418;7.286;2022-10-15T05:08:59;34.63;;;18.65;;
52854;SDS011;38719;51.418;7.286;2022-10-15T05:11:28;33.40;;;19.52;;
52854;SDS011;38719;51.418;7.286;2022-10-15T05:13:56;31.25;;;18.58;;
52854;SDS011;38719;51.418;7.286;2022-10-15T05:16:25;32.85;;;18.77;;
52854;SDS011;38719;51.418;7.286;2022-10-15T05:18:55;29.90;;;18.52;;
52854;SDS011;38719;51.418;7.286;2022-10-15T05:21:23;33.80;;;20.10;;
52854;SDS011;38719;51.418;7.286;2022-10-15T05:23:51;29.90;;;19.20;;
52854;SDS011;38719;51.418;7.286;2022-10-15T05:26:19;33.13;;;18.88;;
52854;SDS011;38719;51.418;7.286;2022-10-15T05:28:50;31.55;;;18.25;;
52854;SDS011;38719;51.418;7.286;2022-10-15T05:31:19;33.40;;;18.55;;
52854;SDS011;38719;51.418;7.286;2022-10-15T05:33:48;34.63;;;18.95;;
52854;SDS011;38719;51.418;7.286;2022-10-15T05:36:17;29.45;;;18.42;;
52854;SDS011;38719;51.418;7.286;2022-10-15T05:38:47;32.45;;;18.77;;
52854;SDS011;38719;51.418;7.286;2022-10-15T05:41:16;32.28;;;17.45;;
52854;SDS011;38719;51.418;7.286;2022-10-15T05:43:45;32.05;;;18.15;;
52854;SDS011;38719;51.418;7.286;2022-10-15T05:46:14;31.80;;;18.65;;
52854;SDS011;38719;51.418;7.286;2022-10-15T05:48:42;30.25;;;18.35;;
52854;SDS011;38719;51.418;7.286;2022-10-15T05:51:14;31.95;;;17.98;;
52854;SDS011;38719;51.418;7.286;2022-10-15T05:53:42;31.30;;;18.48;;
52854;SDS011;38719;51.418;7.286;2022-10-15T05:56:11;37.10;;;20.02;;
52854;SDS011;38719;51.418;7.286;2022-10-15T05:58:39;32.58;;;17.92;;
52854;SDS011;38719;51.418;7.286;2022-10-15T06:01:07;34.78;;;19.15;;
52854;SDS011;38719;51.418;7.286;2022-10-15T06:03:38;32.05;;;19.20;;
52854;SDS011;38719;51.418;7.286;2022-10-15T06:06:12;33.55;;;19.35;;
52854;SDS011;38719;51.418;7.286;2022-10-15T06:08:40;36.75;;;19.60;;
52854;SDS011;38719;51.418;7.286;2022-10-15T06:11:08;32.78;;;19.23;;
52854;SDS011;38719;51.418;7.286;2022-10-15T06:13:36;36.25;;;19.50;;
52854;SDS011;38719;51.418;7.286;2022-10-15T06:16:04;36.80;;;19.05;;
52854;SDS011;38719;51.418;7.286;2022-10-15T06:18:32;34.03;;;18.83;;
52854;SDS011;38719;51.418;7.286;2022-10-15T06:21:01;35.00;;;19.00;;
52854;SDS011;38719;51.418;7.286;2022-10-15T06:23:29;31.48;;;18.52;;
52854;SDS011;38719;51.418;7.286;2022-10-15T06:26:00;34.03;;;19.83;;
52854;SDS011;38719;51.418;7.286;2022-10-15T06:28:28;31.98;;;19.02;;
52854;SDS011;38719;51.418;7.286;2022-10-15T06:30:56;35.10;;;19.83;;
52854;SDS011;38719;51.418;7.286;2022-10-15T06:33:24;35.05;;;19.38;;
52854;SDS011;38719;51.418;7.286;2022-10-15T06:35:52;34.20;;;18.80;;
52854;SDS011;38719;51.418;7.286;2022-10-15T06:38:21;33.90;;;19.77;;
52854;SDS011;38719;51.418;7.286;2022-10-15T06:40:50;45.25;;;20.25;;
52854;SDS011;38719;51.418;7.286;2022-10-15T06:43:17;36.15;;;20.23;;
52854;SDS011;38719;51.418;7.286;2022-10-15T06:45:45;30.63;;;18.98;;
52854;SDS011;38719;51.418;7.286;2022-10-15T06:48:12;34.72;;;19.33;;
52854;SDS011;38719;51.418;7.286;2022-10-15T06:50:40;32.08;;;17.85;;
52854;SDS011;38719;51.418;7.286;2022-10-15T06:53:07;36.88;;;18.88;;
52854;SDS011;38719;51.418;7.286;2022-10-15T06:55:36;31.65;;;17.80;;
52854;SDS011;38719;51.418;7.286;2022-10-15T06:58:06;34.08;;;19.05;;
52854;SDS011;38719;51.418;7.286;2022-10-15T07:00:34;34.33;;;17.63;;
52854;SDS011;38719;51.418;7.286;2022-10-15T07:03:02;28.58;;;16.38;;
52854;SDS011;38719;51.418;7.286;2022-10-15T07:05:31;29.63;;;16.33;;
52854;SDS011;38719;51.418;7.286;2022-10-15T07:07:59;26.58;;;15.63;;
52854;SDS011;38719;51.418;7.286;2022-10-15T07:10:27;26.42;;;15.52;;
52854;SDS011;38719;51.418;7.286;2022-10-15T07:12:57;24.25;;;14.63;;
52854;SDS011;38719;51.418;7.286;2022-10-15T07:15:25;26.13;;;15.85;;
52854;SDS011;38719;51.418;7.286;2022-10-15T07:17:53;24.42;;;15.23;;
52854;SDS011;38719;51.418;7.286;2022-10-15T07:20:26;29.85;;;15.52;;
52854;SDS011;38719;51.418;7.286;2022-10-15T07:22:55;24.85;;;14.38;;
52854;SDS011;38719;51.418;7.286;2022-10-15T07:25:23;26.17;;;15.57;;
52854;SDS011;38719;51.418;7.286;2022-10-15T07:27:51;27.05;;;15.95;;
52854;SDS011;38719;51.418;7.286;2022-10-15T07:30:21;25.88;;;15.20;;
52854;SDS011;38719;51.418;7.286;2022-10-15T07:32:52;31.27;;;16.95;;
52854;SDS011;38719;51.418;7.286;2022-10-15T07:35:21;31.55;;;17.08;;
52854;SDS011;38719;51.418;7.286;2022-10-15T07:37:49;32.00;;;17.92;;
52854;SDS011;38719;51.418;7.286;2022-10-15T07:40:16;33.10;;;17.45;;
52854;SDS011;38719;51.418;7.286;2022-10-15T07:42:50;29.77;;;16.77;;
52854;SDS011;38719;51.418;7.286;2022-10-15T07:45:20;30.55;;;18.35;;
52854;SDS011;38719;51.418;7.286;2022-10-15T07:47:49;31.60;;;18.65;;
52854;SDS011;38719;51.418;7.286;2022-10-15T07:50:16;30.35;;;16.90;;
52854;SDS011;38719;51.418;7.286;2022-10-15T07:52:44;31.10;;;17.70;;
52854;SDS011;38719;51.418;7.286;2022-10-15T07:55:12;33.88;;;19.35;;
52854;SDS011;38719;51.418;7.286;2022-10-15T07:57:40;33.63;;;19.13;;
52854;SDS011;38719;51.418;7.286;2022-10-15T08:00:07;38.05;;;18.23;;
52854;SDS011;38719;51.418;7.286;2022-10-15T08:02:37;30.02;;;18.30;;
52854;SDS011;38719;51.418;7.286;2022-10-15T08:05:05;29.40;;;17.30;;
52854;SDS011;38719;51.418;7.286;2022-10-15T08:07:33;32.30;;;17.17;;
52854;SDS011;38719;51.418;7.286;2022-10-15T08:10:01;26.05;;;15.30;;
52854;SDS011;38719;51.418;7.286;2022-10-15T08:12:30;23.48;;;14.00;;
52854;SDS011;38719;51.418;7.286;2022-10-15T08:14:58;23.50;;;14.52;;
52854;SDS011;38719;51.418;7.286;2022-10-15T08:17:25;25.48;;;15.00;;
52854;SDS011;38719;51.418;7.286;2022-10-15T08:19:54;25.85;;;14.48;;
52854;SDS011;38719;51.418;7.286;2022-10-15T08:22:22;21.77;;;13.10;;
52854;SDS011;38719;51.418;7.286;2022-10-15T08:24:50;21.25;;;13.23;;
52854;SDS011;38719;51.418;7.286;2022-10-15T08:27:18;16.55;;;11.10;;
52854;SDS011;38719;51.418;7.286;2022-10-15T08:29:46;18.55;;;11.57;;
52854;SDS011;38719;51.418;7.286;2022-10-15T08:32:14;18.23;;;11.43;;
52854;SDS011;38719;51.418;7.286;2022-10-15T08:34:41;18.50;;;11.90;;
52854;SDS011;38719;51.418;7.286;2022-10-15T08:37:10;17.05;;;10.57;;
52854;SDS011;38719;51.418;7.286;2022-10-15T08:39:44;18.58;;;10.95;;
52854;SDS011;38719;51.418;7.286;2022-10-15T08:42:13;19.65;;;11.45;;
52854;SDS011;38719;51.418;7.286;2022-10-15T08:44:45;15.75;;;10.57;;
52854;SDS011;38719;51.418;7.286;2022-10-15T08:47:25;13.77;;;9.40;;
52854;SDS011;38719;51.418;7.286;2022-10-15T08:49:57;16.40;;;9.38;;
52854;SDS011;38719;51.418;7.286;2022-10-15T08:52:28;18.42;;;8.88;;
52854;SDS011;38719;51.418;7.286;2022-10-15T08:55:07;12.75;;;8.55;;
52854;SDS011;38719;51.418;7.286;2022-10-15T08:57:39;10.27;;;7.50;;
52854;SDS011;38719;51.418;7.286;2022-10-15T09:00:15;12.05;;;7.88;;
52854;SDS011;38719;51.418;7.286;2022-10-15T09:02:47;9.20;;;6.95;;
52854;SDS011;38719;51.418;7.286;2022-10-15T09:05:24;9.95;;;6.55;;
52854;SDS011;38719;51.418;7.286;2022-10-15T09:07:58;7.32;;;5.68;;
52854;SDS011;38719;51.418;7.286;2022-10-15T09:10:35;7.18;;;5.32;;
52854;SDS011;38719;51.418;7.286;2022-10-15T09:13:09;6.03;;;4.35;;
52854;SDS011;38719;51.418;7.286;2022-10-15T09:15:45;5.45;;;4.03;;
52854;SDS011;38719;51.418;7.286;2022-10-15T09:18:19;6.15;;;3.70;;
52854;SDS011;38719;51.418;7.286;2022-10-15T09:20:49;4.40;;;4.00;;
52854;SDS011;38719;51.418;7.286;2022-10-15T09:23:19;6.15;;;4.07;;
52854;SDS011;38719;51.418;7.286;2022-10-15T09:25:50;4.50;;;3.83;;
52854;SDS011;38719;51.418;7.286;2022-10-15T09:28:24;5.22;;;3.22;;
52854;SDS011;38719;51.418;7.286;2022-10-15T09:30:57;6.45;;;3.00;;
52854;SDS011;38719;51.418;7.286;2022-10-15T09:33:32;3.38;;;2.75;;
52854;SDS011;38719;51.418;7.286;2022-10-15T09:36:07;3.80;;;2.50;;
52854;SDS011;38719;51.418;7.286;2022-10-15T09:38:48;3.88;;;2.47;;
52854;SDS011;38719;51.418;7.286;2022-10-15T09:41:29;3.78;;;2.35;;
52854;SDS011;38719;51.418;7.286;2022-10-15T09:44:09;3.05;;;2.40;;
52854;SDS011;38719;51.418;7.286;2022-10-15T09:46:45;3.78;;;2.20;;
52854;SDS011;38719;51.418;7.286;2022-10-15T09:49:14;1.95;;;1.85;;
52854;SDS011;38719;51.418;7.286;2022-10-15T09:51:45;2.30;;;2.03;;
52854;SDS011;38719;51.418;7.286;2022-10-15T09:54:22;2.55;;;1.85;;
52854;SDS011;38719;51.418;7.286;2022-10-15T09:56:58;3.55;;;1.70;;
52854;SDS011;38719;51.418;7.286;2022-10-15T09:59:25;1.70;;;1.55;;
52854;SDS011;38719;51.418;7.286;2022-10-15T10:01:57;1.85;;;1.73;;
52854;SDS011;38719;51.418;7.286;2022-10-15T10:04:26;1.83;;;1.60;;
52854;SDS011;38719;51.418;7.286;2022-10-15T10:06:56;1.52;;;1.35;;
52854;SDS011;38719;51.418;7.286;2022-10-15T10:09:27;1.80;;;1.65;;
52854;SDS011;38719;51.418;7.286;2022-10-15T10:11:58;1.77;;;1.50;;
52854;SDS011;38719;51.418;7.286;2022-10-15T10:14:28;2.67;;;1.50;;
52854;SDS011;38719;51.418;7.286;2022-10-15T10:17:15;4.45;;;1.40;;
52854;SDS011;38719;51.418;7.286;2022-10-15T10:19:45;2.10;;;1.40;;
52854;SDS011;38719;51.418;7.286;2022-10-15T10:22:30;2.30;;;1.70;;
52854;SDS011;38719;51.418;7.286;2022-10-15T10:28:11;1.58;;;1.33;;
52854;SDS011;38719;51.418;7.286;2022-10-15T10:30:46;2.33;;;1.55;;
52854;SDS011;38719;51.418;7.286;2022-10-15T10:33:20;3.20;;;1.35;;
52854;SDS011;38719;51.418;7.286;2022-10-15T10:35:52;1.48;;;1.02;;
52854;SDS011;38719;51.418;7.286;2022-10-15T10:38:23;2.05;;;1.20;;
52854;SDS011;38719;51.418;7.286;2022-10-15T10:40:54;5.50;;;1.10;;
52854;SDS011;38719;51.418;7.286;2022-10-15T10:43:30;1.33;;;1.23;;
52854;SDS011;38719;51.418;7.286;2022-10-15T10:46:05;1.90;;;1.20;;
52854;SDS011;38719;51.418;7.286;2022-10-15T10:48:44;1.27;;;1.15;;
52854;SDS011;38719;51.418;7.286;2022-10-15T10:51:14;1.60;;;1.40;;
52854;SDS011;38719;51.418;7.286;2022-10-15T10:53:49;1.75;;;1.23;;
52854;SDS011;38719;51.418;7.286;2022-10-15T10:56:21;1.63;;;1.50;;
52854;SDS011;38719;51.418;7.286;2022-10-15T10:58:51;1.30;;;1.20;;
52854;SDS011;38719;51.418;7.286;2022-10-15T11:01:26;103.18;;;7.88;;
52854;SDS011;38719;51.418;7.286;2022-10-15T11:03:54;1.00;;;1.00;;
52854;SDS011;38719;51.418;7.286;2022-10-15T11:06:24;3.83;;;1.33;;
52854;SDS011;38719;51.418;7.286;2022-10-15T11:09:05;1.20;;;1.10;;
52854;SDS011;38719;51.418;7.286;2022-10-15T11:11:44;1.77;;;1.10;;
52854;SDS011;38719;51.418;7.286;2022-10-15T11:14:27;5.55;;;1.40;;
52854;SDS011;38719;51.418;7.286;2022-10-15T11:17:02;1.30;;;1.20;;
52854;SDS011;38719;51.418;7.286;2022-10-15T11:19:42;1.20;;;1.10;;
52854;SDS011;38719;51.418;7.286;2022-10-15T11:22:37;1.33;;;1.20;;
52854;SDS011;38719;51.418;7.286;2022-10-15T11:25:17;1.33;;;1.20;;
52854;SDS011;38719;51.418;7.286;2022-10-15T11:27:58;0.90;;;0.90;;
52854;SDS011;38719;51.418;7.286;2022-10-15T11:30:39;1.40;;;1.30;;
52854;SDS011;38719;51.418;7.286;2022-10-15T11:33:18;0.90;;;0.90;;
52854;SDS011;38719;51.418;7.286;2022-10-15T11:36:01;1.08;;;1.00;;
52854;SDS011;38719;51.418;7.286;2022-10-15T11:38:43;1.10;;;1.10;;
52854;SDS011;38719;51.418;7.286;2022-10-15T11:41:24;4.72;;;1.15;;
52854;SDS011;38719;51.418;7.286;2022-10-15T11:44:15;3.13;;;1.30;;
52854;SDS011;38719;51.418;7.286;2022-10-15T11:46:52;1.30;;;1.20;;
52854;SDS011;38719;51.418;7.286;2022-10-15T11:49:36;1.30;;;1.20;;
52854;SDS011;38719;51.418;7.286;2022-10-15T11:52:12;1.58;;;1.48;;
52854;SDS011;38719;51.418;7.286;2022-10-15T11:54:53;2.03;;;1.67;;
52854;SDS011;38719;51.418;7.286;2022-10-15T11:57:28;1.05;;;1.05;;
52854;SDS011;38719;51.418;7.286;2022-10-15T12:00:00;1.75;;;1.63;;
52854;SDS011;38719;51.418;7.286;2022-10-15T12:02:32;1.55;;;1.45;;
52854;SDS011;38719;51.418;7.286;2022-10-15T12:05:04;3.83;;;1.67;;
52854;SDS011;38719;51.418;7.286;2022-10-15T12:07:35;1.42;;;1.33;;
52854;SDS011;38719;51.418;7.286;2022-10-15T12:10:08;5.00;;;1.40;;
52854;SDS011;38719;51.418;7.286;2022-10-15T12:12:48;2.15;;;1.70;;
52854;SDS011;38719;51.418;7.286;2022-10-15T12:15:26;1.40;;;1.30;;
52854;SDS011;38719;51.418;7.286;2022-10-15T12:18:02;2.25;;;1.52;;
52854;SDS011;38719;51.418;7.286;2022-10-15T12:23:20;2.30;;;2.10;;
52854;SDS011;38719;51.418;7.286;2022-10-15T12:25:50;2.28;;;1.10;;
52854;SDS011;38719;51.418;7.286;2022-10-15T12:28:19;1.40;;;1.30;;
52854;SDS011;38719;51.418;7.286;2022-10-15T12:30:57;2.25;;;1.80;;
52854;SDS011;38719;51.418;7.286;2022-10-15T12:33:33;1.40;;;1.30;;
52854;SDS011;38719;51.418;7.286;2022-10-15T12:36:03;1.15;;;1.10;;
52854;SDS011;38719;51.418;7.286;2022-10-15T12:38:35;1.50;;;1.40;;
52854;SDS011;38719;51.418;7.286;2022-10-15T12:41:05;1.63;;;1.52;;
52854;SDS011;38719;51.418;7.286;2022-10-15T12:43:35;1.50;;;1.40;;
52854;SDS011;38719;51.418;7.286;2022-10-15T12:46:08;2.75;;;1.50;;
52854;SDS011;38719;51.418;7.286;2022-10-15T12:48:38;4.55;;;1.40;;
52854;SDS011;38719;51.418;7.286;2022-10-15T12:57:01;1.90;;;1.70;;
52854;SDS011;38719;51.418;7.286;2022-10-15T13:02:33;1.52;;;1.23;;
52854;SDS011;38719;51.418;7.286;2022-10-15T13:05:04;1.63;;;1.48;;
52854;SDS011;38719;51.418;7.286;2022-10-15T13:07:34;2.55;;;1.35;;
52854;SDS011;38719;51.418;7.286;2022-10-15T13:10:14;1.42;;;1.33;;
52854;SDS011;38719;51.418;7.286;2022-10-15T13:12:47;2.80;;;1.40;;
52854;SDS011;38719;51.418;7.286;2022-10-15T13:15:18;1.70;;;1.60;;
52854;SDS011;38719;51.418;7.286;2022-10-15T13:17:50;1.60;;;1.50;;
52854;SDS011;38719;51.418;7.286;2022-10-15T13:20:30;3.67;;;1.90;;
52854;SDS011;38719;51.418;7.286;2022-10-15T13:23:07;1.48;;;1.38;;
52854;SDS011;38719;51.418;7.286;2022-10-15T13:26:14;2.67;;;1.60;;
52854;SDS011;38719;51.418;7.286;2022-10-15T13:28:45;1.60;;;1.50;;
52854;SDS011;38719;51.418;7.286;2022-10-15T13:31:15;3.55;;;1.50;;
52854;SDS011;38719;51.418;7.286;2022-10-15T13:33:54;0.90;;;0.90;;
52854;SDS011;38719;51.418;7.286;2022-10-15T13:36:26;1.48;;;1.38;;
52854;SDS011;38719;51.418;7.286;2022-10-15T13:38:58;2.15;;;1.58;;
52854;SDS011;38719;51.418;7.286;2022-10-15T13:41:29;1.73;;;1.52;;
52854;SDS011;38719;51.418;7.286;2022-10-15T13:43:59;1.30;;;1.20;;
52854;SDS011;38719;51.418;7.286;2022-10-15T13:46:29;1.50;;;1.40;;
52854;SDS011;38719;51.418;7.286;2022-10-15T13:48:59;2.60;;;1.40;;
52854;SDS011;38719;51.418;7.286;2022-10-15T13:51:32;2.30;;;1.38;;
52854;SDS011;38719;51.418;7.286;2022-10-15T13:54:06;3.30;;;1.38;;
52854;SDS011;38719;51.418;7.286;2022-10-15T13:56:36;1.77;;;1.40;;
52854;SDS011;38719;51.418;7.286;2022-10-15T13:59:15;1.65;;;1.30;;
52854;SDS011;38719;51.418;7.286;2022-10-15T14:01:45;1.30;;;1.20;;
52854;SDS011;38719;51.418;7.286;2022-10-15T14:04:16;1.63;;;1.30;;
52854;SDS011;38719;51.418;7.286;2022-10-15T14:06:51;1.42;;;1.33;;
52854;SDS011;38719;51.418;7.286;2022-10-15T14:09:22;1.80;;;1.20;;
52854;SDS011;38719;51.418;7.286;2022-10-15T14:11:53;1.55;;;1.45;;
52854;SDS011;38719;51.418;7.286;2022-10-15T14:14:29;1.10;;;1.10;;
52854;SDS011;38719;51.418;7.286;2022-10-15T14:16:59;3.40;;;1.45;;
52854;SDS011;38719;51.418;7.286;2022-10-15T14:19:30;1.65;;;1.55;;
52854;SDS011;38719;51.418;7.286;2022-10-15T14:22:00;1.50;;;1.40;;
52854;SDS011;38719;51.418;7.286;2022-10-15T14:24:29;1.67;;;1.48;;
52854;SDS011;38719;51.418;7.286;2022-10-15T14:27:03;3.30;;;1.80;;
52854;SDS011;38719;51.418;7.286;2022-10-15T14:29:34;1.38;;;1.25;;
52854;SDS011;38719;51.418;7.286;2022-10-15T14:32:18;1.83;;;1.60;;
52854;SDS011;38719;51.418;7.286;2022-10-15T14:34:49;1.65;;;1.45;;
52854;SDS011;38719;51.418;7.286;2022-10-15T14:37:28;2.20;;;2.00;;
52854;SDS011;38719;51.418;7.286;2022-10-15T14:40:15;2.15;;;1.60;;
52854;SDS011;38719;51.418;7.286;2022-10-15T14:42:45;1.48;;;1.38;;
52854;SDS011;38719;51.418;7.286;2022-10-15T14:45:22;1.65;;;1.20;;
52854;SDS011;38719;51.418;7.286;2022-10-15T14:47:51;1.55;;;1.45;;
52854;SDS011;38719;51.418;7.286;2022-10-15T14:50:23;3.67;;;1.50;;
52854;SDS011;38719;51.418;7.286;2022-10-15T14:52:53;2.20;;;1.60;;
52854;SDS011;38719;51.418;7.286;2022-10-15T14:55:28;4.70;;;1.58;;
52854;SDS011;38719;51.418;7.286;2022-10-15T14:57:58;1.70;;;1.60;;
52854;SDS011;38719;51.418;7.286;2022-10-15T15:00:28;3.20;;;1.70;;
52854;SDS011;38719;51.418;7.286;2022-10-15T15:03:00;1.45;;;1.35;;
52854;SDS011;38719;51.418;7.286;2022-10-15T15:05:42;3.63;;;1.60;;
52854;SDS011;38719;51.418;7.286;2022-10-15T15:08:10;1.95;;;1.70;;
52854;SDS011;38719;51.418;7.286;2022-10-15T15:10:38;1.77;;;1.52;;
52854;SDS011;38719;51.418;7.286;2022-10-15T15:13:09;5.93;;;1.98;;
52854;SDS011;38719;51.418;7.286;2022-10-15T15:15:38;2.92;;;1.90;;
52854;SDS011;38719;51.418;7.286;2022-10-15T15:18:07;2.75;;;2.00;;
52854;SDS011;38719;51.418;7.286;2022-10-15T15:20:37;2.45;;;1.80;;
52854;SDS011;38719;51.418;7.286;2022-10-15T15:23:05;3.65;;;2.00;;